sensor_id;sensor_type;location;lat;lon;timestamp;pressure;altitude;pressure_sealevel;temperature;humidity
12785;BME280;6456;42.680;23.260;2024-02-21T00:00:40;95331.59;;;7.27;100.00
12785;BME280;6456;42.680;23.260;2024-02-21T00:03:09;95333.91;;;7.22;100.00
12785;BME280;6456;42.680;23.260;2024-02-21T00:05:38;95287.38;;;6.87;100.00
12785;BME280;6456;42.680;23.260;2024-02-21T00:08:09;95273.41;;;6.72;100.00
12785;BME280;6456;42.680;23.260;2024-02-21T00:10:36;95302.50;;;6.99;100.00
12785;BME280;6456;42.680;23.260;2024-02-21T00:13:06;95289.13;;;6.94;100.00
12785;BME280;6456;42.680;23.260;2024-02-21T00:15:34;95287.56;;;6.85;100.00
12785;BME280;6456;42.680;23.260;2024-02-21T00:18:01;95323.56;;;7.06;100.00
12785;BME280;6456;42.680;23.260;2024-02-21T00:20:29;95322.84;;;7.12;100.00
12785;BME280;6456;42.680;23.260;2024-02-21T00:22:57;95292.44;;;6.88;100.00
12785;BME280;6456;42.680;23.260;2024-02-21T00:25:24;95271.91;;;6.77;100.00
12785;BME280;6456;42.680;23.260;2024-02-21T00:27:51;95264.81;;;6.63;100.00
12785;BME280;6456;42.680;23.260;2024-02-21T00:30:19;95272.44;;;6.73;100.00
12785;BME280;6456;42.680;23.260;2024-02-21T00:32:50;95276.84;;;6.72;100.00
12785;BME280;6456;42.680;23.260;2024-02-21T00:35:19;95275.97;;;6.80;100.00
12785;BME280;6456;42.680;23.260;2024-02-21T00:37:49;95332.50;;;7.11;100.00
12785;BME280;6456;42.680;23.260;2024-02-21T00:40:17;95327.75;;;7.15;100.00
12785;BME280;6456;42.680;23.260;2024-02-21T00:42:45;95322.19;;;7.18;100.00
12785;BME280;6456;42.680;23.260;2024-02-21T00:45:13;95251.81;;;6.78;100.00
12785;BME280;6456;42.680;23.260;2024-02-21T00:47:43;95307.28;;;7.19;100.00
12785;BME280;6456;42.680;23.260;2024-02-21T00:50:18;95219.59;;;6.55;100.00
12785;BME280;6456;42.680;23.260;2024-02-21T00:52:46;95240.06;;;6.74;100.00
12785;BME280;6456;42.680;23.260;2024-02-21T00:55:14;95307.75;;;7.22;100.00
12785;BME280;6456;42.680;23.260;2024-02-21T00:57:48;95197.22;;;6.52;100.00
12785;BME280;6456;42.680;23.260;2024-02-21T01:00:18;95241.09;;;6.87;100.00
12785;BME280;6456;42.680;23.260;2024-02-21T01:02:46;95307.28;;;7.19;100.00
12785;BME280;6456;42.680;23.260;2024-02-21T01:05:14;95289.13;;;7.17;100.00
12785;BME280;6456;42.680;23.260;2024-02-21T01:07:44;95232.97;;;6.82;100.00
12785;BME280;6456;42.680;23.260;2024-02-21T01:10:12;95192.34;;;6.49;100.00
12785;BME280;6456;42.680;23.260;2024-02-21T01:12:38;95278.78;;;7.01;100.00
12785;BME280;6456;42.680;23.260;2024-02-21T01:15:10;95291.44;;;7.12;100.00
12785;BME280;6456;42.680;23.260;2024-02-21T01:17:37;95270.28;;;6.99;100.00
12785;BME280;6456;42.680;23.260;2024-02-21T01:20:07;95273.47;;;7.09;100.00
12785;BME280;6456;42.680;23.260;2024-02-21T01:22:34;95238.69;;;6.86;100.00
12785;BME280;6456;42.680;23.260;2024-02-21T01:25:02;95261.13;;;7.03;100.00
12785;BME280;6456;42.680;23.260;2024-02-21T01:27:29;95263.88;;;7.01;100.00
12785;BME280;6456;42.680;23.260;2024-02-21T01:29:57;95175.47;;;6.52;100.00
12785;BME280;6456;42.680;23.260;2024-02-21T01:32:25;95246.44;;;6.94;100.00
12785;BME280;6456;42.680;23.260;2024-02-21T01:34:52;95273.13;;;7.12;100.00
12785;BME280;6456;42.680;23.260;2024-02-21T01:37:19;95264.47;;;7.11;100.00
12785;BME280;6456;42.680;23.260;2024-02-21T01:39:47;95263.53;;;7.04;100.00
12785;BME280;6456;42.680;23.260;2024-02-21T01:42:15;95228.66;;;6.89;100.00
12785;BME280;6456;42.680;23.260;2024-02-21T01:44:42;95206.06;;;6.74;100.00
12785;BME280;6456;42.680;23.260;2024-02-21T01:47:09;95224.59;;;6.87;100.00
12785;BME280;6456;42.680;23.260;2024-02-21T01:49:40;95261.84;;;7.11;100.00
12785;BME280;6456;42.680;23.260;2024-02-21T01:52:08;95247.31;;;7.09;100.00
12785;BME280;6456;42.680;23.260;2024-02-21T01:54:35;95253.56;;;7.08;100.00
12785;BME280;6456;42.680;23.260;2024-02-21T01:57:03;95242.16;;;7.01;100.00
12785;BME280;6456;42.680;23.260;2024-02-21T01:59:31;95208.75;;;6.66;100.00
12785;BME280;6456;42.680;23.260;2024-02-21T02:01:58;95260.25;;;7.10;100.00
12785;BME280;6456;42.680;23.260;2024-02-21T02:04:26;95247.75;;;6.98;100.00
12785;BME280;6456;42.680;23.260;2024-02-21T02:06:55;95268.72;;;7.13;100.00
12785;BME280;6456;42.680;23.260;2024-02-21T02:09:24;95264.94;;;7.15;100.00
12785;BME280;6456;42.680;23.260;2024-02-21T02:11:51;95236.94;;;7.01;100.00
12785;BME280;6456;42.680;23.260;2024-02-21T02:14:18;95256.56;;;7.20;100.00
12785;BME280;6456;42.680;23.260;2024-02-21T02:16:46;95256.75;;;7.18;100.00
12785;BME280;6456;42.680;23.260;2024-02-21T02:19:14;95251.84;;;7.15;100.00
12785;BME280;6456;42.680;23.260;2024-02-21T02:21:46;95190.00;;;6.77;100.00
12785;BME280;6456;42.680;23.260;2024-02-21T02:24:20;95234.59;;;7.06;100.00
12785;BME280;6456;42.680;23.260;2024-02-21T02:26:50;95244.63;;;7.17;100.00
12785;BME280;6456;42.680;23.260;2024-02-21T02:29:17;95242.84;;;7.18;100.00
12785;BME280;6456;42.680;23.260;2024-02-21T02:31:48;95220.84;;;7.04;100.00
12785;BME280;6456;42.680;23.260;2024-02-21T02:34:15;95238.41;;;7.18;100.00
12785;BME280;6456;42.680;23.260;2024-02-21T02:36:42;95210.19;;;6.91;100.00
12785;BME280;6456;42.680;23.260;2024-02-21T02:39:09;95183.81;;;6.78;100.00
12785;BME280;6456;42.680;23.260;2024-02-21T02:41:38;95155.28;;;6.68;100.00
12785;BME280;6456;42.680;23.260;2024-02-21T02:44:05;95196.56;;;6.95;100.00
12785;BME280;6456;42.680;23.260;2024-02-21T02:46:40;95213.00;;;7.04;100.00
12785;BME280;6456;42.680;23.260;2024-02-21T02:49:11;95179.69;;;6.83;100.00
12785;BME280;6456;42.680;23.260;2024-02-21T02:51:41;95237.59;;;7.18;100.00
12785;BME280;6456;42.680;23.260;2024-02-21T02:54:09;95226.56;;;7.07;100.00
12785;BME280;6456;42.680;23.260;2024-02-21T02:56:37;95242.84;;;7.18;100.00
12785;BME280;6456;42.680;23.260;2024-02-21T02:59:04;95224.81;;;7.00;100.00
12785;BME280;6456;42.680;23.260;2024-02-21T03:01:33;95155.81;;;6.64;100.00
12785;BME280;6456;42.680;23.260;2024-02-21T03:04:00;95216.97;;;7.00;100.00
12785;BME280;6456;42.680;23.260;2024-02-21T03:06:27;95211.75;;;7.00;100.00
12785;BME280;6456;42.680;23.260;2024-02-21T03:08:54;95238.41;;;7.18;100.00
12785;BME280;6456;42.680;23.260;2024-02-21T03:11:22;95189.50;;;6.81;100.00
12785;BME280;6456;42.680;23.260;2024-02-21T03:13:56;95191.84;;;6.76;100.00
12785;BME280;6456;42.680;23.260;2024-02-21T03:16:23;95253.03;;;7.13;100.00
12785;BME280;6456;42.680;23.260;2024-02-21T03:18:50;95174.69;;;6.51;100.00
12785;BME280;6456;42.680;23.260;2024-02-21T03:21:17;95200.47;;;6.77;100.00
12785;BME280;6456;42.680;23.260;2024-02-21T03:23:44;95258.50;;;7.03;100.00
12785;BME280;6456;42.680;23.260;2024-02-21T03:26:11;95214.56;;;6.76;100.00
12785;BME280;6456;42.680;23.260;2024-02-21T03:28:45;95246.38;;;7.02;100.00
12785;BME280;6456;42.680;23.260;2024-02-21T03:31:13;95206.13;;;6.66;100.00
12785;BME280;6456;42.680;23.260;2024-02-21T03:33:43;95254.59;;;6.99;100.00
12785;BME280;6456;42.680;23.260;2024-02-21T03:36:13;95201.34;;;6.46;100.00
12785;BME280;6456;42.680;23.260;2024-02-21T03:38:41;95263.16;;;6.93;100.00
12785;BME280;6456;42.680;23.260;2024-02-21T03:41:26;95212.34;;;6.65;100.00
12785;BME280;6456;42.680;23.260;2024-02-21T03:43:53;95268.47;;;6.99;100.00
12785;BME280;6456;42.680;23.260;2024-02-21T03:46:23;95245.19;;;6.90;100.00
12785;BME280;6456;42.680;23.260;2024-02-21T03:48:51;95218.50;;;6.72;100.00
12785;BME280;6456;42.680;23.260;2024-02-21T03:51:18;95163.50;;;6.34;100.00
12785;BME280;6456;42.680;23.260;2024-02-21T03:53:45;95235.06;;;6.87;100.00
12785;BME280;6456;42.680;23.260;2024-02-21T03:56:12;95235.88;;;6.87;100.00
12785;BME280;6456;42.680;23.260;2024-02-21T03:58:39;95244.50;;;6.96;100.00
12785;BME280;6456;42.680;23.260;2024-02-21T04:01:06;95233.91;;;6.89;100.00
12785;BME280;6456;42.680;23.260;2024-02-21T04:03:35;95263.25;;;7.22;100.00
12785;BME280;6456;42.680;23.260;2024-02-21T04:06:03;95262.13;;;7.17;100.00
12785;BME280;6456;42.680;23.260;2024-02-21T04:08:33;95261.72;;;7.28;100.00
12785;BME280;6456;42.680;23.260;2024-02-21T04:11:00;95217.94;;;6.99;100.00
12785;BME280;6456;42.680;23.260;2024-02-21T04:13:27;95244.34;;;7.12;100.00
12785;BME280;6456;42.680;23.260;2024-02-21T04:15:54;95257.91;;;7.16;100.00
12785;BME280;6456;42.680;23.260;2024-02-21T04:18:22;95206.41;;;6.93;100.00
12785;BME280;6456;42.680;23.260;2024-02-21T04:20:51;95183.84;;;6.70;100.00
12785;BME280;6456;42.680;23.260;2024-02-21T04:23:18;95202.28;;;6.76;100.00
12785;BME280;6456;42.680;23.260;2024-02-21T04:25:45;95265.22;;;7.20;100.00
12785;BME280;6456;42.680;23.260;2024-02-21T04:28:12;95263.78;;;7.18;100.00
12785;BME280;6456;42.680;23.260;2024-02-21T04:30:39;95263.81;;;7.09;100.00
12785;BME280;6456;42.680;23.260;2024-02-21T04:33:06;95200.72;;;6.67;100.00
12785;BME280;6456;42.680;23.260;2024-02-21T04:35:35;95263.09;;;7.01;100.00
12785;BME280;6456;42.680;23.260;2024-02-21T04:38:05;95254.72;;;6.83;100.00
12785;BME280;6456;42.680;23.260;2024-02-21T04:40:32;95174.97;;;6.33;100.00
12785;BME280;6456;42.680;23.260;2024-02-21T04:42:59;95206.84;;;6.52;100.00
12785;BME280;6456;42.680;23.260;2024-02-21T04:45:26;95203.31;;;6.44;100.00
12785;BME280;6456;42.680;23.260;2024-02-21T04:47:53;95210.53;;;6.42;100.00
12785;BME280;6456;42.680;23.260;2024-02-21T04:50:20;95248.19;;;6.56;100.00
12785;BME280;6456;42.680;23.260;2024-02-21T04:52:47;95213.81;;;6.36;100.00
12785;BME280;6456;42.680;23.260;2024-02-21T04:55:16;95260.75;;;6.61;100.00
12785;BME280;6456;42.680;23.260;2024-02-21T04:57:43;95275.25;;;6.71;100.00
12785;BME280;6456;42.680;23.260;2024-02-21T05:00:11;95236.31;;;6.45;100.00
12785;BME280;6456;42.680;23.260;2024-02-21T05:02:38;95237.84;;;6.32;100.00
12785;BME280;6456;42.680;23.260;2024-02-21T05:05:05;95221.22;;;6.25;100.00
12785;BME280;6456;42.680;23.260;2024-02-21T05:07:32;95270.88;;;6.64;100.00
12785;BME280;6456;42.680;23.260;2024-02-21T05:10:01;95274.13;;;6.66;100.00
12785;BME280;6456;42.680;23.260;2024-02-21T05:12:30;95204.44;;;6.19;100.00
12785;BME280;6456;42.680;23.260;2024-02-21T05:14:59;95215.16;;;6.32;100.00
12785;BME280;6456;42.680;23.260;2024-02-21T05:17:26;95285.50;;;6.73;100.00
12785;BME280;6456;42.680;23.260;2024-02-21T05:19:53;95284.53;;;6.74;100.00
12785;BME280;6456;42.680;23.260;2024-02-21T05:22:20;95285.31;;;6.74;100.00
12785;BME280;6456;42.680;23.260;2024-02-21T05:24:47;95229.44;;;6.44;100.00
12785;BME280;6456;42.680;23.260;2024-02-21T05:27:14;95246.06;;;6.52;100.00
12785;BME280;6456;42.680;23.260;2024-02-21T05:29:43;95291.00;;;6.86;100.00
12785;BME280;6456;42.680;23.260;2024-02-21T05:32:10;95232.03;;;6.53;100.00
12785;BME280;6456;42.680;23.260;2024-02-21T05:34:37;95253.94;;;6.74;100.00
12785;BME280;6456;42.680;23.260;2024-02-21T05:37:04;95225.44;;;6.57;100.00
12785;BME280;6456;42.680;23.260;2024-02-21T05:39:31;95175.31;;;6.30;100.00
12785;BME280;6456;42.680;23.260;2024-02-21T05:41:58;95265.22;;;6.97;100.00
12785;BME280;6456;42.680;23.260;2024-02-21T05:44:25;95267.16;;;7.03;100.00
12785;BME280;6456;42.680;23.260;2024-02-21T05:46:56;95283.75;;;7.19;100.00
12785;BME280;6456;42.680;23.260;2024-02-21T05:49:23;95293.66;;;7.23;100.00
12785;BME280;6456;42.680;23.260;2024-02-21T05:51:50;95281.63;;;7.14;100.00
12785;BME280;6456;42.680;23.260;2024-02-21T05:54:17;95290.53;;;7.28;100.00
12785;BME280;6456;42.680;23.260;2024-02-21T05:56:45;95284.19;;;7.22;100.00
12785;BME280;6456;42.680;23.260;2024-02-21T05:59:12;95306.69;;;7.31;100.00
12785;BME280;6456;42.680;23.260;2024-02-21T06:01:39;95298.19;;;7.29;100.00
12785;BME280;6456;42.680;23.260;2024-02-21T06:04:08;95312.22;;;7.36;100.00
12785;BME280;6456;42.680;23.260;2024-02-21T06:06:35;95307.63;;;7.38;100.00
12785;BME280;6456;42.680;23.260;2024-02-21T06:09:02;95310.97;;;7.47;100.00
12785;BME280;6456;42.680;23.260;2024-02-21T06:11:29;95300.50;;;7.47;100.00
12785;BME280;6456;42.680;23.260;2024-02-21T06:13:56;95285.84;;;7.38;99.04
12785;BME280;6456;42.680;23.260;2024-02-21T06:16:23;95273.03;;;7.28;98.87
12785;BME280;6456;42.680;23.260;2024-02-21T06:18:50;95276.50;;;7.43;98.91
12785;BME280;6456;42.680;23.260;2024-02-21T06:21:19;95303.63;;;7.65;98.97
12785;BME280;6456;42.680;23.260;2024-02-21T06:23:46;95305.59;;;7.63;98.65
12785;BME280;6456;42.680;23.260;2024-02-21T06:26:13;95308.97;;;7.71;97.71
12785;BME280;6456;42.680;23.260;2024-02-21T06:28:42;95325.16;;;7.90;97.56
12785;BME280;6456;42.680;23.260;2024-02-21T06:31:12;95285.13;;;7.66;97.45
12785;BME280;6456;42.680;23.260;2024-02-21T06:33:40;95315.31;;;7.92;97.47
12785;BME280;6456;42.680;23.260;2024-02-21T06:36:08;95311.63;;;7.86;98.13
12785;BME280;6456;42.680;23.260;2024-02-21T06:38:37;95314.94;;;7.95;97.86
12785;BME280;6456;42.680;23.260;2024-02-21T06:41:04;95314.31;;;7.93;97.00
12785;BME280;6456;42.680;23.260;2024-02-21T06:43:31;95335.28;;;8.07;97.41
12785;BME280;6456;42.680;23.260;2024-02-21T06:45:58;95343.91;;;8.16;97.25
12785;BME280;6456;42.680;23.260;2024-02-21T06:48:25;95300.25;;;7.94;97.11
12785;BME280;6456;42.680;23.260;2024-02-21T06:50:52;95331.63;;;8.16;96.69
12785;BME280;6456;42.680;23.260;2024-02-21T06:53:18;95258.13;;;7.81;95.54
12785;BME280;6456;42.680;23.260;2024-02-21T06:55:50;95343.66;;;8.40;95.18
12785;BME280;6456;42.680;23.260;2024-02-21T06:58:17;95348.53;;;8.43;95.67
12785;BME280;6456;42.680;23.260;2024-02-21T07:00:44;95341.13;;;8.32;95.43
12785;BME280;6456;42.680;23.260;2024-02-21T07:03:11;95317.69;;;8.16;95.14
12785;BME280;6456;42.680;23.260;2024-02-21T07:05:38;95352.06;;;8.50;95.52
12785;BME280;6456;42.680;23.260;2024-02-21T07:08:05;95360.66;;;8.59;95.09
12785;BME280;6456;42.680;23.260;2024-02-21T07:10:32;95327.38;;;8.45;94.72
12785;BME280;6456;42.680;23.260;2024-02-21T07:13:01;95355.50;;;8.65;94.42
12785;BME280;6456;42.680;23.260;2024-02-21T07:15:28;95352.16;;;8.71;93.93
12785;BME280;6456;42.680;23.260;2024-02-21T07:17:56;95322.50;;;8.56;94.02
12785;BME280;6456;42.680;23.260;2024-02-21T07:20:23;95347.84;;;8.85;93.72
12785;BME280;6456;42.680;23.260;2024-02-21T07:22:50;95294.63;;;8.55;93.24
12785;BME280;6456;42.680;23.260;2024-02-21T07:25:17;95354.34;;;9.03;92.76
12785;BME280;6456;42.680;23.260;2024-02-21T07:27:44;95352.59;;;9.11;91.52
12785;BME280;6456;42.680;23.260;2024-02-21T07:30:13;95353.78;;;9.08;90.93
12785;BME280;6456;42.680;23.260;2024-02-21T07:32:40;95303.19;;;8.78;90.56
12785;BME280;6456;42.680;23.260;2024-02-21T07:35:08;95338.97;;;9.00;91.19
12785;BME280;6456;42.680;23.260;2024-02-21T07:37:37;95346.47;;;9.03;92.08
12785;BME280;6456;42.680;23.260;2024-02-21T07:40:05;95312.44;;;8.95;90.20
12785;BME280;6456;42.680;23.260;2024-02-21T07:42:33;95302.63;;;8.83;89.33
12785;BME280;6456;42.680;23.260;2024-02-21T07:45:00;95363.50;;;9.29;89.54
12785;BME280;6456;42.680;23.260;2024-02-21T07:47:30;95352.63;;;9.32;89.45
12785;BME280;6456;42.680;23.260;2024-02-21T07:49:56;95357.06;;;9.31;89.72
12785;BME280;6456;42.680;23.260;2024-02-21T07:52:24;95357.13;;;9.38;90.48
12785;BME280;6456;42.680;23.260;2024-02-21T07:54:51;95345.00;;;9.37;89.43
12785;BME280;6456;42.680;23.260;2024-02-21T07:57:18;95293.97;;;9.03;89.07
12785;BME280;6456;42.680;23.260;2024-02-21T07:59:45;95356.81;;;9.47;88.63
12785;BME280;6456;42.680;23.260;2024-02-21T08:02:13;95339.81;;;9.43;89.69
12785;BME280;6456;42.680;23.260;2024-02-21T08:04:42;95350.44;;;9.56;88.98
12785;BME280;6456;42.680;23.260;2024-02-21T08:07:09;95333.63;;;9.51;88.43
12785;BME280;6456;42.680;23.260;2024-02-21T08:09:36;95356.56;;;9.63;87.94
12785;BME280;6456;42.680;23.260;2024-02-21T08:12:06;95347.25;;;9.61;87.25
12785;BME280;6456;42.680;23.260;2024-02-21T08:14:33;95333.88;;;9.56;86.85
12785;BME280;6456;42.680;23.260;2024-02-21T08:17:00;95348.97;;;9.75;87.27
12785;BME280;6456;42.680;23.260;2024-02-21T08:19:27;95347.41;;;9.81;86.71
12785;BME280;6456;42.680;23.260;2024-02-21T08:21:55;95295.81;;;9.52;84.71
12785;BME280;6456;42.680;23.260;2024-02-21T08:24:22;95326.47;;;9.66;85.09
12785;BME280;6456;42.680;23.260;2024-02-21T08:26:49;95334.06;;;9.82;85.37
12785;BME280;6456;42.680;23.260;2024-02-21T08:29:16;95337.66;;;9.75;85.22
12785;BME280;6456;42.680;23.260;2024-02-21T08:31:43;95337.72;;;9.81;83.40
12785;BME280;6456;42.680;23.260;2024-02-21T08:34:10;95354.22;;;9.96;80.17
12785;BME280;6456;42.680;23.260;2024-02-21T08:36:38;95321.09;;;9.74;81.26
12785;BME280;6456;42.680;23.260;2024-02-21T08:39:06;95309.06;;;9.65;80.86
12785;BME280;6456;42.680;23.260;2024-02-21T08:41:35;95363.56;;;10.05;80.86
12785;BME280;6456;42.680;23.260;2024-02-21T08:44:02;95301.06;;;9.73;80.43
12785;BME280;6456;42.680;23.260;2024-02-21T08:46:29;95362.59;;;10.06;80.94
12785;BME280;6456;42.680;23.260;2024-02-21T08:48:56;95310.34;;;9.69;81.67
12785;BME280;6456;42.680;23.260;2024-02-21T08:51:23;95328.03;;;9.82;81.84
12785;BME280;6456;42.680;23.260;2024-02-21T08:53:50;95309.94;;;9.72;80.41
12785;BME280;6456;42.680;23.260;2024-02-21T08:56:18;95365.97;;;10.00;80.69
12785;BME280;6456;42.680;23.260;2024-02-21T08:58:45;95362.94;;;9.97;80.64
12785;BME280;6456;42.680;23.260;2024-02-21T09:01:15;95364.38;;;9.99;81.67
12785;BME280;6456;42.680;23.260;2024-02-21T09:03:42;95313.09;;;9.61;81.74
12785;BME280;6456;42.680;23.260;2024-02-21T09:06:10;95362.28;;;9.95;82.00
12785;BME280;6456;42.680;23.260;2024-02-21T09:08:38;95351.44;;;9.77;81.46
12785;BME280;6456;42.680;23.260;2024-02-21T09:11:06;95355.50;;;9.79;81.32
12785;BME280;6456;42.680;23.260;2024-02-21T09:13:34;95351.13;;;9.65;81.96
12785;BME280;6456;42.680;23.260;2024-02-21T09:16:01;95366.88;;;9.86;82.27
12785;BME280;6456;42.680;23.260;2024-02-21T09:18:29;95360.50;;;9.74;85.34
12785;BME280;6456;42.680;23.260;2024-02-21T09:20:56;95374.38;;;9.68;86.07
12785;BME280;6456;42.680;23.260;2024-02-21T09:23:24;95365.41;;;9.56;87.11
12785;BME280;6456;42.680;23.260;2024-02-21T09:25:51;95263.78;;;8.93;89.02
12785;BME280;6456;42.680;23.260;2024-02-21T09:28:18;95368.19;;;9.54;89.41
12785;BME280;6456;42.680;23.260;2024-02-21T09:30:47;95288.28;;;9.21;88.90
12785;BME280;6456;42.680;23.260;2024-02-21T09:33:14;95303.09;;;9.50;87.65
12785;BME280;6456;42.680;23.260;2024-02-21T09:35:41;95325.16;;;9.77;87.27
12785;BME280;6456;42.680;23.260;2024-02-21T09:38:08;95309.56;;;9.75;87.73
12785;BME280;6456;42.680;23.260;2024-02-21T09:40:35;95354.59;;;10.14;84.32
12785;BME280;6456;42.680;23.260;2024-02-21T09:43:05;95346.59;;;10.08;84.83
12785;BME280;6456;42.680;23.260;2024-02-21T09:45:33;95310.38;;;9.76;82.49
12785;BME280;6456;42.680;23.260;2024-02-21T09:48:19;95326.06;;;9.90;82.37
12785;BME280;6456;42.680;23.260;2024-02-21T09:50:53;95353.84;;;9.99;83.10
12785;BME280;6456;42.680;23.260;2024-02-21T09:53:24;95335.19;;;9.94;82.69
12785;BME280;6456;42.680;23.260;2024-02-21T09:55:52;95343.13;;;10.22;81.96
12785;BME280;6456;42.680;23.260;2024-02-21T09:58:19;95323.75;;;10.36;79.37
12785;BME280;6456;42.680;23.260;2024-02-21T10:00:47;95333.03;;;10.66;78.74
12785;BME280;6456;42.680;23.260;2024-02-21T10:03:15;95296.38;;;10.65;77.83
12785;BME280;6456;42.680;23.260;2024-02-21T10:05:47;95348.59;;;11.15;73.91
12785;BME280;6456;42.680;23.260;2024-02-21T10:08:15;95264.22;;;10.76;73.70
12785;BME280;6456;42.680;23.260;2024-02-21T10:10:43;95358.16;;;11.16;73.24
12785;BME280;6456;42.680;23.260;2024-02-21T10:13:10;95364.38;;;11.02;73.66
12785;BME280;6456;42.680;23.260;2024-02-21T10:15:37;95322.91;;;10.70;74.32
12785;BME280;6456;42.680;23.260;2024-02-21T10:18:04;95302.28;;;10.67;72.75
12785;BME280;6456;42.680;23.260;2024-02-21T10:20:33;95295.16;;;10.61;72.18
12785;BME280;6456;42.680;23.260;2024-02-21T10:23:01;95304.47;;;10.70;72.21
12785;BME280;6456;42.680;23.260;2024-02-21T10:25:29;95300.03;;;10.64;72.41
12785;BME280;6456;42.680;23.260;2024-02-21T10:27:56;95334.75;;;10.87;72.13
12785;BME280;6456;42.680;23.260;2024-02-21T10:30:23;95305.91;;;10.72;72.09
12785;BME280;6456;42.680;23.260;2024-02-21T10:32:50;95332.13;;;10.87;72.06
12785;BME280;6456;42.680;23.260;2024-02-21T10:35:26;95314.91;;;10.91;73.23
12785;BME280;6456;42.680;23.260;2024-02-21T10:37:55;95286.97;;;10.97;71.46
12785;BME280;6456;42.680;23.260;2024-02-21T10:40:24;95302.81;;;11.16;69.58
12785;BME280;6456;42.680;23.260;2024-02-21T10:42:56;95291.50;;;11.35;69.05
12785;BME280;6456;42.680;23.260;2024-02-21T10:45:29;95280.34;;;11.40;69.36
12785;BME280;6456;42.680;23.260;2024-02-21T10:48:05;95236.38;;;11.14;68.96
12785;BME280;6456;42.680;23.260;2024-02-21T10:50:39;95271.88;;;11.51;66.11
12785;BME280;6456;42.680;23.260;2024-02-21T10:53:29;95270.06;;;11.65;66.53
12785;BME280;6456;42.680;23.260;2024-02-21T10:56:06;95268.63;;;11.62;66.63
12785;BME280;6456;42.680;23.260;2024-02-21T10:58:38;95221.78;;;11.51;65.26
12785;BME280;6456;42.680;23.260;2024-02-21T11:01:06;95196.66;;;11.42;64.67
12785;BME280;6456;42.680;23.260;2024-02-21T11:03:34;95227.06;;;11.64;64.91
12785;BME280;6456;42.680;23.260;2024-02-21T11:06:03;95238.84;;;11.75;62.22
12785;BME280;6456;42.680;23.260;2024-02-21T11:08:32;95241.50;;;11.75;62.93
12785;BME280;6456;42.680;23.260;2024-02-21T11:10:59;95187.75;;;11.36;62.37
12785;BME280;6456;42.680;23.260;2024-02-21T11:13:35;95247.97;;;11.92;62.95
12785;BME280;6456;42.680;23.260;2024-02-21T11:16:09;95229.69;;;11.84;60.59
12785;BME280;6456;42.680;23.260;2024-02-21T11:18:37;95243.88;;;11.83;60.55
12785;BME280;6456;42.680;23.260;2024-02-21T11:21:04;95250.16;;;11.55;59.49
12785;BME280;6456;42.680;23.260;2024-02-21T11:23:33;95234.97;;;11.44;59.48
12785;BME280;6456;42.680;23.260;2024-02-21T11:26:09;95223.19;;;11.27;60.75
12785;BME280;6456;42.680;23.260;2024-02-21T11:28:41;95187.34;;;11.07;59.99
12785;BME280;6456;42.680;23.260;2024-02-21T11:31:11;95178.81;;;11.11;58.83
12785;BME280;6456;42.680;23.260;2024-02-21T11:33:39;95162.81;;;11.06;56.81
12785;BME280;6456;42.680;23.260;2024-02-21T11:36:08;95223.81;;;11.55;57.01
12785;BME280;6456;42.680;23.260;2024-02-21T11:38:37;95224.03;;;11.54;57.29
12785;BME280;6456;42.680;23.260;2024-02-21T11:41:11;95162.00;;;11.25;57.91
12785;BME280;6456;42.680;23.260;2024-02-21T11:43:41;95195.44;;;11.44;57.61
12785;BME280;6456;42.680;23.260;2024-02-21T11:46:08;95168.28;;;11.37;58.80
12785;BME280;6456;42.680;23.260;2024-02-21T11:48:37;95230.31;;;11.73;57.52
12785;BME280;6456;42.680;23.260;2024-02-21T11:51:05;95118.47;;;11.10;58.24
12785;BME280;6456;42.680;23.260;2024-02-21T11:53:35;95218.94;;;11.66;59.84
12785;BME280;6456;42.680;23.260;2024-02-21T11:56:08;95233.16;;;11.65;58.50
12785;BME280;6456;42.680;23.260;2024-02-21T11:58:35;95185.50;;;11.33;59.60
12785;BME280;6456;42.680;23.260;2024-02-21T12:01:03;95206.19;;;11.36;60.60
12785;BME280;6456;42.680;23.260;2024-02-21T12:03:33;95155.72;;;10.93;60.48
12785;BME280;6456;42.680;23.260;2024-02-21T12:06:01;95234.13;;;11.37;61.39
12785;BME280;6456;42.680;23.260;2024-02-21T12:08:42;95182.47;;;11.17;61.99
12785;BME280;6456;42.680;23.260;2024-02-21T12:11:21;95170.31;;;10.89;62.76
12785;BME280;6456;42.680;23.260;2024-02-21T12:13:58;95121.28;;;10.69;62.35
12785;BME280;6456;42.680;23.260;2024-02-21T12:16:27;95137.88;;;10.76;63.33
12785;BME280;6456;42.680;23.260;2024-02-21T12:18:56;95111.72;;;10.55;62.28
12785;BME280;6456;42.680;23.260;2024-02-21T12:21:30;95186.28;;;10.88;63.46
12785;BME280;6456;42.680;23.260;2024-02-21T12:24:11;95125.72;;;10.62;63.06
12785;BME280;6456;42.680;23.260;2024-02-21T12:26:38;95189.72;;;10.95;61.93
12785;BME280;6456;42.680;23.260;2024-02-21T12:29:05;95199.06;;;11.11;63.02
12785;BME280;6456;42.680;23.260;2024-02-21T12:31:35;95160.78;;;10.95;62.97
12785;BME280;6456;42.680;23.260;2024-02-21T12:34:03;95189.56;;;11.23;61.27
12785;BME280;6456;42.680;23.260;2024-02-21T12:36:31;95175.97;;;11.06;60.66
12785;BME280;6456;42.680;23.260;2024-02-21T12:38:59;95192.19;;;11.16;60.89
12785;BME280;6456;42.680;23.260;2024-02-21T12:41:30;95171.13;;;11.03;61.36
12785;BME280;6456;42.680;23.260;2024-02-21T12:43:58;95133.22;;;10.78;61.58
12785;BME280;6456;42.680;23.260;2024-02-21T12:46:26;95175.59;;;11.16;59.56
12785;BME280;6456;42.680;23.260;2024-02-21T12:48:57;95159.19;;;11.07;59.39
12785;BME280;6456;42.680;23.260;2024-02-21T12:51:24;95162.00;;;11.25;59.57
12785;BME280;6456;42.680;23.260;2024-02-21T12:53:53;95166.66;;;11.49;60.41
12785;BME280;6456;42.680;23.260;2024-02-21T12:56:21;95120.03;;;11.30;60.16
12785;BME280;6456;42.680;23.260;2024-02-21T12:58:50;95169.06;;;11.57;60.17
12785;BME280;6456;42.680;23.260;2024-02-21T13:01:17;95142.53;;;11.33;63.12
12785;BME280;6456;42.680;23.260;2024-02-21T13:03:44;95165.63;;;11.50;66.03
12785;BME280;6456;42.680;23.260;2024-02-21T13:06:12;95155.53;;;11.15;67.29
12785;BME280;6456;42.680;23.260;2024-02-21T13:08:39;95145.38;;;11.05;68.37